Time;durP1;ratioP1;P1;durP2;ratioP2;P2;SDS_P1;SDS_P2;PMS_P1;PMS_P2;Temp;Humidity;BMP_temperature;BMP_pressure;BME280_temperature;BME280_humidity;BME280_pressure;Samples;Min_cycle;Max_cycle;Signal;HPM_P1;HPM_P2
2022/07/16 00:01:23;;;;;;;1999.90;999.90;;;;;;;22.35;35.11;95690.22;5051084;28;20029;-68
2022/07/16 00:04:00;;;;;;;1999.90;999.90;;;;;;;22.27;35.08;95711.03;5050538;28;20082;-67
2022/07/16 00:06:27;;;;;;;1999.90;999.90;;;;;;;22.24;35.50;95732.66;5051777;28;20031;-68
2022/07/16 00:08:53;;;;;;;1999.90;999.90;;;;;;;21.89;35.95;95716.59;5046863;28;20030;-68
2022/07/16 00:11:19;;;;;;;1999.90;999.90;;;;;;;22.23;35.65;95741.94;5049279;28;20028;-67
2022/07/16 00:13:45;;;;;;;1999.90;999.90;;;;;;;22.08;36.66;95737.41;5048407;28;20134;-67
2022/07/16 00:16:11;;;;;;;1999.90;999.90;;;;;;;21.84;36.66;95731.22;5050866;28;20031;-67
2022/07/16 00:21:20;;;;;;;1999.90;999.90;;;;;;;21.93;36.58;95691.13;5050481;28;20078;-68
2022/07/16 00:23:46;;;;;;;1999.90;999.90;;;;;;;21.73;36.18;95725.63;5050017;28;20100;-67
2022/07/16 00:26:11;;;;;;;1999.90;999.90;;;;;;;21.95;36.76;95705.06;5051279;28;20633;-68
2022/07/16 00:28:36;;;;;;;1999.90;999.90;;;;;;;21.95;36.49;95715.13;5047985;28;20036;-68
2022/07/16 00:31:02;;;;;;;1999.90;999.90;;;;;;;21.92;36.39;95734.84;5050878;28;20032;-67
2022/07/16 00:33:27;;;;;;;1999.90;999.90;;;;;;;22.06;35.73;95697.13;5049782;28;20167;-67
2022/07/16 00:35:52;;;;;;;1999.90;999.90;;;;;;;22.22;35.71;95724.88;5049851;28;20033;-68
2022/07/16 00:38:18;;;;;;;1999.90;999.90;;;;;;;22.06;35.39;95694.44;5048961;28;20516;-67
2022/07/16 00:40:43;;;;;;;1999.90;999.90;;;;;;;21.80;37.11;95709.50;5048520;28;20029;-68
2022/07/16 00:43:14;;;;;;;1999.90;999.90;;;;;;;21.71;37.35;95722.50;5049290;28;20040;-68
2022/07/16 00:45:40;;;;;;;1999.90;999.90;;;;;;;22.06;35.51;95705.25;5047558;28;20032;-67
2022/07/16 00:48:06;;;;;;;1999.90;999.90;;;;;;;22.26;35.70;95717.56;5048137;28;20040;-68
2022/07/16 00:50:32;;;;;;;1999.90;999.90;;;;;;;22.18;35.67;95715.16;5050679;28;20029;-67
2022/07/16 00:52:59;;;;;;;1999.90;999.90;;;;;;;22.02;36.35;95724.16;5048904;28;20025;-67
2022/07/16 00:55:25;;;;;;;1999.90;999.90;;;;;;;21.97;35.84;95697.38;5050508;28;20033;-67
2022/07/16 00:57:50;;;;;;;1999.90;999.90;;;;;;;21.91;36.76;95725.16;5049595;28;20036;-67
2022/07/16 01:00:15;;;;;;;1999.90;999.90;;;;;;;21.68;37.08;95698.84;5048442;28;20086;-67
2022/07/16 01:02:41;;;;;;;1999.90;999.90;;;;;;;21.76;37.01;95700.53;5050045;28;20035;-67
2022/07/16 01:05:07;;;;;;;1999.90;999.90;;;;;;;21.63;37.98;95718.09;5049744;28;20827;-67
2022/07/16 01:07:33;;;;;;;1999.90;999.90;;;;;;;21.82;37.18;95716.47;5049286;28;20036;-67
2022/07/16 01:10:01;;;;;;;1999.90;999.90;;;;;;;21.68;37.02;95663.66;5041617;28;20037;-68
2022/07/16 01:12:26;;;;;;;1999.90;999.90;;;;;;;21.68;37.36;95701.56;5049909;28;20112;-67
2022/07/16 01:14:52;;;;;;;1999.90;999.90;;;;;;;21.35;38.40;95677.00;5047896;28;20112;-68
2022/07/16 01:17:17;;;;;;;1999.90;999.90;;;;;;;21.43;37.96;95681.38;5049844;28;20021;-68
2022/07/16 01:19:42;;;;;;;1999.90;999.90;;;;;;;21.40;39.08;95728.91;5049505;28;20032;-67
2022/07/16 01:22:09;;;;;;;1999.90;999.90;;;;;;;21.27;38.98;95730.94;5048782;28;20033;-67
2022/07/16 01:24:39;;;;;;;1999.90;999.90;;;;;;;20.84;38.93;95650.16;5049711;28;20104;-67
2022/07/16 01:27:04;;;;;;;1999.90;999.90;;;;;;;21.41;38.77;95721.56;5050142;28;20021;-67
2022/07/16 01:29:29;;;;;;;1999.90;999.90;;;;;;;21.45;38.95;95717.00;5046940;28;20021;-68
2022/07/16 01:31:55;;;;;;;1999.90;999.90;;;;;;;21.26;39.39;95718.56;5044592;28;20478;-67
2022/07/16 01:34:26;;;;;;;1999.90;999.90;;;;;;;21.31;38.94;95708.63;5042677;28;20040;-67
2022/07/16 01:36:54;;;;;;;1999.90;999.90;;;;;;;21.03;39.37;95694.16;5049925;28;20082;-67
2022/07/16 01:39:19;;;;;;;1999.90;999.90;;;;;;;21.35;38.82;95699.44;5047733;28;20421;-67
2022/07/16 01:41:52;;;;;;;1999.90;999.90;;;;;;;21.57;39.03;95716.84;5047723;28;20051;-67
2022/07/16 01:44:18;;;;;;;1999.90;999.90;;;;;;;21.30;39.58;95718.69;5048478;28;20025;-67
2022/07/16 01:46:43;;;;;;;1999.90;999.90;;;;;;;21.50;38.59;95722.13;5049031;28;20036;-67
2022/07/16 01:49:08;;;;;;;1999.90;999.90;;;;;;;21.35;39.31;95748.16;5047360;28;20477;-67
2022/07/16 01:51:34;;;;;;;1999.90;999.90;;;;;;;21.42;38.65;95744.78;5049114;28;20020;-67
2022/07/16 01:53:59;;;;;;;1999.90;999.90;;;;;;;21.07;39.71;95712.41;5048108;28;20079;-69
2022/07/16 01:56:24;;;;;;;1999.90;999.90;;;;;;;20.97;39.71;95733.47;5049801;28;20029;-67
2022/07/16 01:58:50;;;;;;;1999.90;999.90;;;;;;;21.06;39.18;95714.31;5045880;28;20389;-67
2022/07/16 02:01:15;;;;;;;1999.90;999.90;;;;;;;20.71;39.97;95696.25;5049027;28;20052;-69
2022/07/16 02:03:40;;;;;;;1999.90;999.90;;;;;;;20.99;39.35;95704.16;5048231;28;20032;-69
2022/07/16 02:06:05;;;;;;;1999.90;999.90;;;;;;;20.55;40.81;95736.06;5048382;28;20103;-71
2022/07/16 02:08:31;;;;;;;1999.90;999.90;;;;;;;20.57;40.78;95712.16;5047312;28;20406;-69
2022/07/16 02:10:56;;;;;;;1999.90;999.90;;;;;;;20.76;39.90;95716.81;5048638;28;20154;-70
2022/07/16 02:13:21;;;;;;;1999.90;999.90;;;;;;;21.08;39.64;95732.88;5048568;28;20021;-68
2022/07/16 02:15:47;;;;;;;1999.90;999.90;;;;;;;20.84;39.83;95712.34;5047499;28;20040;-68
2022/07/16 02:18:12;;;;;;;1999.90;999.90;;;;;;;20.71;39.79;95723.28;5048090;28;20037;-69
2022/07/16 02:20:37;;;;;;;1999.90;999.90;;;;;;;20.41;40.02;95662.75;5048629;28;20469;-67
2022/07/16 02:23:03;;;;;;;1999.90;999.90;;;;;;;20.45;40.09;95685.25;5047785;28;20021;-68
2022/07/16 02:25:28;;;;;;;1999.90;999.90;;;;;;;20.67;40.61;95745.97;5047953;28;20024;-68
2022/07/16 02:28:06;;;;;;;1999.90;999.90;;;;;;;20.58;40.64;95729.19;5047129;28;20032;-68
2022/07/16 02:30:31;;;;;;;1999.90;999.90;;;;;;;20.79;40.63;95739.66;5047265;28;20033;-68
2022/07/16 02:32:57;;;;;;;1999.90;999.90;;;;;;;20.54;40.85;95723.69;5047304;28;20024;-68
2022/07/16 02:35:23;;;;;;;1999.90;999.90;;;;;;;20.77;40.82;95746.19;5047386;28;20113;-68
2022/07/16 02:37:48;;;;;;;1999.90;999.90;;;;;;;20.07;41.05;95659.72;5047693;28;20437;-68
2022/07/16 02:40:14;;;;;;;1999.90;999.90;;;;;;;20.58;41.07;95729.97;5048103;28;20060;-68
2022/07/16 02:42:40;;;;;;;1999.90;999.90;;;;;;;20.43;41.16;95709.91;5047543;28;20470;-68
2022/07/16 02:45:07;;;;;;;1999.90;999.90;;;;;;;20.52;41.45;95720.53;5046998;28;20489;-69
2022/07/16 02:47:33;;;;;;;1999.90;999.90;;;;;;;20.57;41.63;95730.28;5048661;28;20477;-68
2022/07/16 02:49:58;;;;;;;1999.90;999.90;;;;;;;20.22;41.85;95707.53;5047217;28;20033;-68
2022/07/16 02:52:23;;;;;;;1999.90;999.90;;;;;;;20.15;41.89;95703.88;5049037;28;20032;-68
2022/07/16 02:54:48;;;;;;;1999.90;999.90;;;;;;;20.24;42.15;95732.25;5047413;28;20501;-68
2022/07/16 02:57:14;;;;;;;1999.90;999.90;;;;;;;20.09;42.30;95699.88;5048800;28;20033;-68
2022/07/16 02:59:39;;;;;;;1999.90;999.90;;;;;;;20.14;42.11;95727.41;5046145;28;20028;-68
2022/07/16 03:02:06;;;;;;;1999.90;999.90;;;;;;;19.55;42.43;95638.41;5049357;28;20037;-68
2022/07/16 03:04:31;;;;;;;1999.90;999.90;;;;;;;20.04;42.86;95725.22;5051099;28;20067;-67
2022/07/16 03:06:57;;;;;;;1999.90;999.90;;;;;;;20.11;43.00;95738.88;5043423;28;20053;-68
2022/07/16 03:09:22;;;;;;;1999.90;999.90;;;;;;;20.08;43.01;95746.94;5037894;28;20021;-68
2022/07/16 03:11:47;;;;;;;1999.90;999.90;;;;;;;19.92;43.27;95746.94;5052566;28;20043;-68
2022/07/16 03:14:13;;;;;;;1999.90;999.90;;;;;;;19.74;42.90;95700.59;5051491;28;20053;-67
2022/07/16 03:16:38;;;;;;;1999.90;999.90;;;;;;;19.69;43.46;95704.34;5051223;28;20037;-68
2022/07/16 03:19:03;;;;;;;1999.90;999.90;;;;;;;19.91;43.57;95724.56;5050056;28;20033;-67
2022/07/16 03:21:28;;;;;;;1999.90;999.90;;;;;;;19.97;43.28;95725.84;5052348;28;20490;-68
2022/07/16 03:23:54;;;;;;;1999.90;999.90;;;;;;;19.84;43.31;95723.59;5050606;28;20025;-68
2022/07/16 03:26:19;;;;;;;1999.90;999.90;;;;;;;19.87;43.58;95742.56;5048420;28;20029;-68
2022/07/16 03:28:44;;;;;;;1999.90;999.90;;;;;;;19.59;43.97;95729.16;5050911;28;20028;-68
2022/07/16 03:31:10;;;;;;;1999.90;999.90;;;;;;;19.19;45.33;95731.91;5049948;28;20021;-68
2022/07/16 03:33:35;;;;;;;1999.90;999.90;;;;;;;18.65;46.15;95689.97;5051969;28;20756;-68
2022/07/16 03:36:00;;;;;;;1999.90;999.90;;;;;;;18.99;45.57;95732.91;5051605;28;20064;-68
2022/07/16 03:41:10;;;;;;;1999.90;999.90;;;;;;;19.13;44.82;95682.06;5051355;28;20152;-68
2022/07/16 03:43:35;;;;;;;1999.90;999.90;;;;;;;19.77;44.57;95759.28;5050160;28;20544;-68
2022/07/16 03:46:00;;;;;;;1999.90;999.90;;;;;;;19.78;44.34;95749.28;5048787;28;20435;-68
2022/07/16 03:48:25;;;;;;;1999.90;999.90;;;;;;;19.89;44.16;95736.81;5052062;28;20100;-67
2022/07/16 03:50:51;;;;;;;1999.90;999.90;;;;;;;20.07;43.98;95740.75;5051175;28;20037;-68
2022/07/16 03:53:16;;;;;;;1999.90;999.90;;;;;;;19.73;44.05;95710.63;5051505;28;20021;-67
2022/07/16 03:55:41;;;;;;;1999.90;999.90;;;;;;;20.07;43.84;95748.84;5050127;28;20024;-67
2022/07/16 03:58:07;;;;;;;1999.90;999.90;;;;;;;20.09;43.97;95751.19;5051741;28;20036;-67
2022/07/16 04:00:32;;;;;;;1999.90;999.90;;;;;;;20.20;43.46;95755.69;5049681;28;20053;-68
2022/07/16 04:02:57;;;;;;;1999.90;999.90;;;;;;;20.13;43.38;95735.84;5051387;28;20036;-68
2022/07/16 04:05:23;;;;;;;1999.90;999.90;;;;;;;20.26;43.27;95745.41;5050831;28;20029;-68
2022/07/16 04:07:48;;;;;;;1999.90;999.90;;;;;;;20.44;43.37;95778.25;5049351;28;20112;-67
2022/07/16 04:10:13;;;;;;;1999.90;999.90;;;;;;;20.47;43.25;95774.84;5050500;28;20064;-68
2022/07/16 04:12:39;;;;;;;1999.90;999.90;;;;;;;20.67;42.92;95794.63;5050065;28;20432;-68
2022/07/16 04:15:04;;;;;;;1999.90;999.90;;;;;;;20.02;43.16;95711.31;5048557;28;20494;-67
2022/07/16 04:17:30;;;;;;;1999.90;999.90;;;;;;;20.69;42.67;95795.84;5050820;28;20043;-68
2022/07/16 04:19:55;;;;;;;1999.90;999.90;;;;;;;20.23;43.48;95771.22;5048586;28;20043;-67
2022/07/16 04:22:20;;;;;;;1999.90;999.90;;;;;;;19.92;44.37;95777.41;5048780;28;20029;-67
2022/07/16 04:24:46;;;;;;;1999.90;999.90;;;;;;;19.67;44.73;95746.31;5049684;28;20025;-67
2022/07/16 04:27:11;;;;;;;1999.90;999.90;;;;;;;19.17;45.35;95699.91;5051359;28;20466;-67
2022/07/16 04:29:36;;;;;;;1999.90;999.90;;;;;;;19.47;45.46;95753.47;5049086;28;20052;-68
2022/07/16 04:32:02;;;;;;;1999.90;999.90;;;;;;;19.38;45.90;95742.06;5042373;28;20111;-67
2022/07/16 04:34:28;;;;;;;1999.90;999.90;;;;;;;19.87;44.92;95749.91;5050701;28;20028;-68
2022/07/16 04:36:53;;;;;;;1999.90;999.90;;;;;;;20.20;44.70;95777.31;5051445;28;20037;-67
2022/07/16 04:39:19;;;;;;;1999.90;999.90;;;;;;;20.18;44.24;95757.97;5049268;28;20025;-67
2022/07/16 04:41:44;;;;;;;1999.90;999.90;;;;;;;20.67;44.49;95811.63;5049335;28;20028;-67
2022/07/16 04:44:09;;;;;;;1999.90;999.90;;;;;;;20.86;43.64;95788.47;5050284;28;20477;-68
2022/07/16 04:46:35;;;;;;;1999.90;999.90;;;;;;;21.01;43.37;95790.34;5049109;28;20040;-68
2022/07/16 04:49:00;;;;;;;1999.90;999.90;;;;;;;20.95;43.19;95770.13;5050006;28;20024;-69
2022/07/16 04:51:25;;;;;;;1999.90;999.90;;;;;;;20.50;44.06;95807.38;5050372;28;20024;-68
2022/07/16 04:53:50;;;;;;;1999.90;999.90;;;;;;;20.72;43.13;95808.63;5048554;28;20063;-68
2022/07/16 04:56:16;;;;;;;1999.90;999.90;;;;;;;20.87;42.34;95782.69;5049755;28;20409;-68
2022/07/16 04:58:41;;;;;;;1999.90;999.90;;;;;;;20.61;42.85;95777.09;5049492;28;20025;-68
2022/07/16 05:01:07;;;;;;;1999.90;999.90;;;;;;;20.44;43.04;95787.13;5048983;28;20063;-68
2022/07/16 05:03:32;;;;;;;1999.90;999.90;;;;;;;20.75;42.67;95805.25;5048633;28;20119;-68
2022/07/16 05:05:58;;;;;;;1999.90;999.90;;;;;;;20.42;43.57;95812.94;5050440;28;20029;-68
2022/07/16 05:08:23;;;;;;;1999.90;999.90;;;;;;;19.85;43.63;95771.81;5050403;28;20104;-68
2022/07/16 05:10:48;;;;;;;1999.90;999.90;;;;;;;20.34;43.29;95798.47;5049603;28;20116;-68
2022/07/16 05:13:14;;;;;;;1999.90;999.90;;;;;;;20.30;42.99;95748.19;5047832;28;20033;-68
2022/07/16 05:15:39;;;;;;;1999.90;999.90;;;;;;;20.12;42.60;95737.78;5047735;28;20025;-68
2022/07/16 05:18:04;;;;;;;1999.90;999.90;;;;;;;20.56;43.16;95791.69;5049628;28;20025;-68
2022/07/16 05:20:30;;;;;;;1999.90;999.90;;;;;;;20.40;42.33;95736.84;5042754;28;20029;-68
2022/07/16 05:22:56;;;;;;;1999.90;999.90;;;;;;;20.62;42.73;95746.22;5048782;28;20432;-68
2022/07/16 05:25:22;;;;;;;1999.90;999.90;;;;;;;21.47;41.77;95791.28;5045361;28;20026;-68
2022/07/16 05:27:48;;;;;;;1999.90;999.90;;;;;;;21.33;42.05;95801.03;5030201;28;20026;-68
2022/07/16 05:30:13;;;;;;;1999.90;999.90;;;;;;;21.10;42.11;95828.78;5054575;28;20029;-68
2022/07/16 05:32:42;;;;;;;1999.90;999.90;;;;;;;20.65;42.32;95818.53;5048641;28;20033;-69
2022/07/16 05:35:09;;;;;;;1999.90;999.90;;;;;;;20.45;41.17;95787.91;5049164;28;20063;-66
2022/07/16 05:37:35;;;;;;;1999.90;999.90;;;;;;;20.20;42.44;95785.41;5048598;28;20028;-66
2022/07/16 05:40:00;;;;;;;1999.90;999.90;;;;;;;20.55;41.58;95760.38;5038744;28;20021;-66
2022/07/16 05:42:26;;;;;;;1999.90;999.90;;;;;;;21.16;40.79;95788.72;5049395;28;20037;-66
2022/07/16 05:44:52;;;;;;;1999.90;999.90;;;;;;;20.87;39.62;95760.28;5049919;28;20025;-66
2022/07/16 05:47:17;;;;;;;1999.90;999.90;;;;;;;21.12;39.46;95785.91;5047401;28;20396;-68
2022/07/16 05:49:42;;;;;;;1999.90;999.90;;;;;;;21.17;39.21;95790.28;5048046;28;20036;-66
2022/07/16 05:52:08;;;;;;;1999.90;999.90;;;;;;;21.11;39.44;95792.47;5048982;28;20044;-66
2022/07/16 05:54:33;;;;;;;1999.90;999.90;;;;;;;21.17;39.44;95771.34;5048604;28;20414;-65
2022/07/16 05:56:58;;;;;;;1999.90;999.90;;;;;;;21.64;39.70;95825.25;5046975;28;20504;-66
2022/07/16 05:59:24;;;;;;;1999.90;999.90;;;;;;;21.54;38.82;95815.00;5048640;28;20033;-66
2022/07/16 06:01:49;;;;;;;1999.90;999.90;;;;;;;22.05;37.94;95836.41;5045570;28;20036;-66
2022/07/16 06:04:14;;;;;;;1999.90;999.90;;;;;;;21.42;38.60;95786.16;5047452;28;20031;-66
2022/07/16 06:06:40;;;;;;;1999.90;999.90;;;;;;;21.59;38.18;95813.91;5048265;28;20440;-65
2022/07/16 06:09:05;;;;;;;1999.90;999.90;;;;;;;21.86;37.73;95820.25;5048082;28;20416;-66
2022/07/16 06:11:30;;;;;;;1999.90;999.90;;;;;;;21.84;37.77;95822.50;5047470;28;20100;-66
2022/07/16 06:13:55;;;;;;;1999.90;999.90;;;;;;;22.67;36.85;95809.94;5047710;28;20032;-68
2022/07/16 06:16:22;;;;;;;1999.90;999.90;;;;;;;22.95;37.02;95800.69;5047927;28;20028;-68
2022/07/16 06:18:48;;;;;;;1999.90;999.90;;;;;;;23.24;36.25;95816.19;5045687;28;20033;-69
2022/07/16 06:21:13;;;;;;;1999.90;999.90;;;;;;;23.46;35.75;95805.59;5049640;28;20082;-67
2022/07/16 06:23:38;;;;;;;1999.90;999.90;;;;;;;23.18;35.35;95801.38;5046689;28;20732;-69
2022/07/16 06:26:04;;;;;;;1999.90;999.90;;;;;;;22.55;35.93;95821.78;5049310;28;20138;-67
2022/07/16 06:28:30;;;;;;;1999.90;999.90;;;;;;;22.43;35.68;95789.47;5048802;28;20025;-67
2022/07/16 06:30:55;;;;;;;1999.90;999.90;;;;;;;22.28;36.13;95772.22;5049062;28;20025;-67
2022/07/16 06:33:20;;;;;;;1999.90;999.90;;;;;;;22.58;35.16;95737.03;5047634;28;20033;-67
2022/07/16 06:35:46;;;;;;;1999.90;999.90;;;;;;;22.05;36.35;95793.06;5045324;28;20029;-67
2022/07/16 06:38:12;;;;;;;1999.90;999.90;;;;;;;22.48;36.05;95831.75;5044074;28;20388;-68
2022/07/16 06:40:41;;;;;;;1999.90;999.90;;;;;;;22.21;37.19;95847.94;5038240;28;20029;-68
2022/07/16 06:43:06;;;;;;;1999.90;999.90;;;;;;;22.42;37.13;95846.75;5052475;28;20059;-68
2022/07/16 06:45:31;;;;;;;1999.90;999.90;;;;;;;22.04;36.28;95800.44;5052616;28;20064;-67
2022/07/16 06:47:57;;;;;;;1999.90;999.90;;;;;;;22.60;35.93;95828.84;5051417;28;20017;-67
2022/07/16 06:50:24;;;;;;;1999.90;999.90;;;;;;;22.87;35.93;95818.75;5051406;28;20470;-67
2022/07/16 06:52:49;;;;;;;1999.90;999.90;;;;;;;22.22;35.94;95768.25;5051115;28;20029;-68
2022/07/16 06:55:15;;;;;;;1999.90;999.90;;;;;;;22.41;36.34;95835.13;5051852;28;20230;-66
2022/07/16 06:57:40;;;;;;;1999.90;999.90;;;;;;;22.56;35.91;95838.84;5052070;28;20103;-67
2022/07/16 07:00:06;;;;;;;1999.90;999.90;;;;;;;22.60;34.99;95792.81;5052401;28;20388;-67
2022/07/16 07:02:31;;;;;;;1999.90;999.90;;;;;;;23.16;35.46;95847.09;5049468;28;20025;-65
2022/07/16 07:04:56;;;;;;;1999.90;999.90;;;;;;;23.25;33.71;95823.19;5052523;28;20052;-67
2022/07/16 07:07:22;;;;;;;1999.90;999.90;;;;;;;23.46;33.29;95813.75;5049835;28;20036;-67
2022/07/16 07:09:47;;;;;;;1999.90;999.90;;;;;;;22.73;34.10;95845.69;5051084;28;20056;-68
2022/07/16 07:12:12;;;;;;;1999.90;999.90;;;;;;;22.91;33.71;95837.84;5052120;28;20215;-68
2022/07/16 07:14:37;;;;;;;1999.90;999.90;;;;;;;23.12;33.91;95807.50;5051316;28;20033;-68
2022/07/16 07:17:03;;;;;;;1999.90;999.90;;;;;;;23.06;33.07;95796.97;5036470;28;20117;-67
2022/07/16 07:19:28;;;;;;;1999.90;999.90;;;;;;;22.93;34.07;95843.66;5041839;28;20107;-69
2022/07/16 07:21:54;;;;;;;1999.90;999.90;;;;;;;22.38;34.51;95854.06;5048102;28;20176;-68
2022/07/16 07:24:19;;;;;;;1999.90;999.90;;;;;;;22.79;33.59;95836.88;5045912;28;20524;-68
2022/07/16 07:26:44;;;;;;;1999.90;999.90;;;;;;;23.03;33.72;95796.91;5048722;28;20466;-68
2022/07/16 07:29:10;;;;;;;1999.90;999.90;;;;;;;23.43;33.38;95849.75;5030522;28;20032;-66
2022/07/16 07:31:35;;;;;;;1999.90;999.90;;;;;;;23.22;32.81;95821.19;5031635;28;20781;-68
2022/07/16 07:34:00;;;;;;;1999.90;999.90;;;;;;;23.01;33.87;95837.97;5044653;28;20120;-67
2022/07/16 07:36:25;;;;;;;1999.90;999.90;;;;;;;22.89;33.04;95818.44;5051883;28;20021;-68
2022/07/16 07:38:53;;;;;;;1999.90;999.90;;;;;;;22.83;33.13;95801.69;5050696;28;20060;-69
2022/07/16 07:41:18;;;;;;;1999.90;999.90;;;;;;;21.95;34.87;95824.25;5050576;28;20025;-68
2022/07/16 07:43:43;;;;;;;1999.90;999.90;;;;;;;22.69;33.34;95817.75;5047550;28;20079;-70
2022/07/16 07:46:09;;;;;;;1999.90;999.90;;;;;;;22.75;34.18;95849.59;5048826;28;20024;-69
2022/07/16 07:48:34;;;;;;;1999.90;999.90;;;;;;;22.44;33.62;95780.19;5050155;28;20075;-70
2022/07/16 07:51:00;;;;;;;1999.90;999.90;;;;;;;22.95;33.55;95830.53;5040216;28;20021;-69
2022/07/16 07:53:25;;;;;;;1999.90;999.90;;;;;;;23.03;33.09;95794.19;5051211;28;20155;-69
2022/07/16 07:55:51;;;;;;;1999.90;999.90;;;;;;;22.54;33.20;95743.53;5051208;28;20034;-70
2022/07/16 07:58:16;;;;;;;1999.90;999.90;;;;;;;22.89;32.71;95778.53;5050794;28;20017;-68
2022/07/16 08:00:43;;;;;;;1999.90;999.90;;;;;;;22.46;35.10;95825.91;5050991;28;20025;-70
2022/07/16 08:03:09;;;;;;;1999.90;999.90;;;;;;;22.82;34.95;95849.69;5048926;28;20079;-68
2022/07/16 08:05:35;;;;;;;1999.90;999.90;;;;;;;23.19;34.13;95808.38;5050666;28;20032;-65
2022/07/16 08:08:00;;;;;;;1999.90;999.90;;;;;;;23.28;33.74;95833.28;5050537;28;20115;-66
2022/07/16 08:10:25;;;;;;;1999.90;999.90;;;;;;;22.52;34.16;95767.50;5049700;28;20439;-68
2022/07/16 08:12:51;;;;;;;1999.90;999.90;;;;;;;22.56;34.90;95855.09;5050465;28;20020;-68
2022/07/16 08:15:16;;;;;;;1999.90;999.90;;;;;;;23.35;33.57;95835.34;5049903;28;20480;-68
2022/07/16 08:17:42;;;;;;;1999.90;999.90;;;;;;;23.71;33.20;95820.25;5050733;28;20041;-66
2022/07/16 08:20:09;;;;;;;1999.90;999.90;;;;;;;24.06;33.29;95840.81;5049084;28;20440;-68
2022/07/16 08:22:38;;;;;;;1999.90;999.90;;;;;;;23.12;33.53;95759.44;5051344;28;20535;-68
2022/07/16 08:27:51;;;;;;;1999.90;999.90;;;;;;;24.06;32.31;95843.53;5050789;28;20095;-68
2022/07/16 08:30:17;;;;;;;1999.90;999.90;;;;;;;23.31;32.90;95859.72;5050194;28;20021;-68
2022/07/16 08:32:43;;;;;;;1999.90;999.90;;;;;;;22.82;34.09;95836.13;5048702;28;20029;-68
2022/07/16 08:35:08;;;;;;;1999.90;999.90;;;;;;;23.25;33.94;95842.19;5051204;28;20774;-68
2022/07/16 08:37:37;;;;;;;1999.90;999.90;;;;;;;23.40;33.13;95853.22;5051340;28;20116;-67
2022/07/16 08:40:05;;;;;;;1999.90;999.90;;;;;;;23.71;32.76;95852.06;5050235;28;20029;-67
2022/07/16 08:42:33;;;;;;;1999.90;999.90;;;;;;;22.93;33.57;95862.66;5047626;28;20033;-67
2022/07/16 08:44:59;;;;;;;1999.90;999.90;;;;;;;23.04;33.75;95839.97;5050913;28;20029;-67
2022/07/16 08:47:26;;;;;;;1999.90;999.90;;;;;;;23.28;32.50;95819.72;5048942;28;20025;-67
2022/07/16 08:49:52;;;;;;;1999.90;999.90;;;;;;;23.33;33.12;95856.63;5049686;28;20079;-67
2022/07/16 08:52:19;;;;;;;1999.90;999.90;;;;;;;23.82;31.97;95823.09;5050754;28;20021;-68
2022/07/16 08:54:45;;;;;;;1999.90;999.90;;;;;;;23.09;33.13;95845.09;5048300;28;20082;-68
2022/07/16 08:57:11;;;;;;;1999.90;999.90;;;;;;;23.18;33.09;95838.59;5049748;28;20127;-67
2022/07/16 08:59:37;;;;;;;1999.90;999.90;;;;;;;22.88;33.01;95776.97;5048883;28;20029;-72
2022/07/16 09:02:02;;;;;;;1999.90;999.90;;;;;;;23.94;31.49;95789.44;5047541;28;20126;-68
2022/07/16 09:04:28;;;;;;;1999.90;999.90;;;;;;;24.19;31.00;95776.06;5049691;28;20032;-70
2022/07/16 09:06:53;;;;;;;1999.90;999.90;;;;;;;23.78;32.26;95806.75;5049355;28;20048;-68
2022/07/16 09:09:19;;;;;;;1999.90;999.90;;;;;;;24.73;31.08;95799.81;5049811;28;20025;-66
2022/07/16 09:11:46;;;;;;;1999.90;999.90;;;;;;;24.53;31.00;95847.44;5048458;28;20056;-66
2022/07/16 09:14:14;;;;;;;1999.90;999.90;;;;;;;24.71;30.92;95851.06;5050093;28;20021;-73
2022/07/16 09:16:46;;;;;;;1999.90;999.90;;;;;;;24.20;31.39;95849.06;5049252;28;20029;-63
2022/07/16 09:19:22;;;;;;;1999.90;999.90;;;;;;;23.69;31.30;95838.84;5049084;28;20032;-67
2022/07/16 09:22:05;;;;;;;1999.90;999.90;;;;;;;23.19;31.99;95821.19;5050339;28;20098;-66
2022/07/16 09:24:48;;;;;;;1999.90;999.90;;;;;;;23.83;30.71;95847.16;5048332;28;20041;-65
2022/07/16 09:27:27;;;;;;;1999.90;999.90;;;;;;;23.62;30.88;95822.44;5049559;28;20033;-70
2022/07/16 09:30:03;;;;;;;1999.90;999.90;;;;;;;24.29;30.79;95846.81;5050873;28;20044;-66
2022/07/16 09:32:34;;;;;;;1999.90;999.90;;;;;;;24.08;30.71;95843.91;5049416;28;20036;-67
2022/07/16 09:35:20;;;;;;;1999.90;999.90;;;;;;;23.14;32.56;95849.41;5050559;28;20029;-69
2022/07/16 09:37:56;;;;;;;1999.90;999.90;;;;;;;23.84;31.46;95846.00;5049568;28;20292;-68
2022/07/16 09:40:33;;;;;;;1999.90;999.90;;;;;;;24.65;30.36;95847.16;5049719;28;20491;-69
2022/07/16 09:43:12;;;;;;;1999.90;999.90;;;;;;;24.18;30.25;95807.13;5048479;28;20047;-69
2022/07/16 09:45:41;;;;;;;1999.90;999.90;;;;;;;24.08;30.64;95754.22;5048661;28;20029;-70
2022/07/16 09:48:31;;;;;;;1999.90;999.90;;;;;;;24.45;30.44;95843.09;5049732;28;20031;-67
2022/07/16 09:51:11;;;;;;;1999.90;999.90;;;;;;;24.34;30.85;95840.25;5050566;28;20033;-70
2022/07/16 09:53:38;;;;;;;1999.90;999.90;;;;;;;23.90;30.55;95818.50;5050205;28;20040;-67
2022/07/16 09:56:06;;;;;;;1999.90;999.90;;;;;;;24.71;29.88;95833.97;5047026;28;20018;-70
2022/07/16 09:58:32;;;;;;;1999.90;999.90;;;;;;;24.13;30.81;95810.97;5048668;28;20028;-70
2022/07/16 10:00:59;;;;;;;1999.90;999.90;;;;;;;24.96;29.74;95840.34;5047860;28;20051;-68
2022/07/16 10:03:25;;;;;;;1999.90;999.90;;;;;;;24.83;30.81;95837.19;5048577;28;20052;-66
2022/07/16 10:05:51;;;;;;;1999.90;999.90;;;;;;;24.73;30.24;95832.44;5047938;28;20028;-68
2022/07/16 10:08:17;;;;;;;1999.90;999.90;;;;;;;24.93;30.00;95794.06;5050487;28;20029;-66
2022/07/16 10:10:44;;;;;;;1999.90;999.90;;;;;;;25.37;28.56;95827.38;5048333;28;20079;-65
2022/07/16 10:13:11;;;;;;;1999.90;999.90;;;;;;;24.72;29.58;95827.38;5048109;28;20033;-65
2022/07/16 10:15:37;;;;;;;1999.90;999.90;;;;;;;24.64;30.31;95826.53;5050112;28;20033;-66
2022/07/16 10:18:03;;;;;;;1999.90;999.90;;;;;;;24.77;28.91;95818.84;5048167;28;20481;-65
2022/07/16 10:20:34;;;;;;;1999.90;999.90;;;;;;;24.06;29.20;95778.28;5048556;28;20055;-64
2022/07/16 10:23:05;;;;;;;1999.90;999.90;;;;;;;25.18;30.15;95808.59;5047369;28;20029;-66
2022/07/16 10:25:32;;;;;;;1999.90;999.90;;;;;;;24.48;29.62;95826.81;5049027;28;20028;-69
2022/07/16 10:27:57;;;;;;;1999.90;999.90;;;;;;;25.25;28.37;95816.81;5047662;28;20036;-71
2022/07/16 10:30:24;;;;;;;1999.90;999.90;;;;;;;25.11;28.35;95835.81;5048508;28;20028;-70
2022/07/16 10:32:59;;;;;;;1999.90;999.90;;;;;;;24.76;28.33;95831.66;5047096;28;20029;-70
2022/07/16 10:35:31;;;;;;;1999.90;999.90;;;;;;;24.82;28.84;95827.44;5048709;28;20412;-70
2022/07/16 10:38:16;;;;;;;1999.90;999.90;;;;;;;24.62;29.33;95826.94;5049805;28;20033;-71
2022/07/16 10:40:42;;;;;;;1999.90;999.90;;;;;;;24.74;29.70;95823.13;5046704;28;20060;-70
2022/07/16 10:43:23;;;;;;;1999.90;999.90;;;;;;;24.84;28.73;95841.47;5048165;28;20052;-71
2022/07/16 10:45:57;;;;;;;1999.90;999.90;;;;;;;25.09;28.87;95830.75;5047564;28;20106;-72
2022/07/16 10:48:37;;;;;;;1999.90;999.90;;;;;;;24.76;28.86;95826.22;5050002;28;20029;-73
2022/07/16 10:51:18;;;;;;;1999.90;999.90;;;;;;;24.70;27.96;95797.03;5049565;28;20029;-73
2022/07/16 10:53:56;;;;;;;1999.90;999.90;;;;;;;25.78;27.14;95818.97;5047331;28;20048;-76
2022/07/16 10:56:45;;;;;;;1999.90;999.90;;;;;;;25.52;26.75;95816.53;5054377;28;20116;-68
2022/07/16 10:59:14;;;;;;;1999.90;999.90;;;;;;;24.74;28.02;95828.56;5038621;28;20436;-69
2022/07/16 11:01:41;;;;;;;1999.90;999.90;;;;;;;25.05;27.66;95804.63;5048395;28;20028;-70